KCSV/CSV METAR and TAF weather

Enter ICAO airport designator
Station Type Date Time Source
KCSV METAR 2020/02/26 09:53 UTC NOAA

KCSV 260953Z AUTO 15003KT 9SM OVC004 05/04 A2987 RMK AO2 SLP112 T00500039


Station Type Date Time Source
KCSV Decoded METAR 2020/02/26 09:53 UTC NOAA

CROSSVILLE MEMORIAL AIRPORT , TN, United States (KCSV) 35-57N 85-05W 570M
Feb 26, 2020 - 04:53 AM EST / 2020.02.26 0953 UTC
Wind: from the SSE (150 degrees) at 3 MPH (3 KT):0
Visibility: 9 mile(s):0
Sky conditions: overcast
Temperature: 41.0 F (5.0 C)
Dew Point: 39.0 F (3.9 C)
Relative Humidity: 92%
Pressure (altimeter): 29.87 in. Hg (1011 hPa)
ob: KCSV 260953Z AUTO 15003KT 9SM OVC004 05/04 A2987 RMK AO2 SLP112 T00500039
cycle: 10

Station Type Date Time Source
KCSV TAF 2020/02/26 10:45 UTC NOAA

TAF
AMD KCSV 260943Z 2610/2706 00000KT P6SM BKN005 OVC025
TEMPO 2610/2614 4SM BR SCT005 OVC025
FM261400 25005KT 5SM -SHRA BR OVC003
FM261800 27011G17KT 6SM -SHRA OVC007
FM270100 30009G14KT P6SM OVC012

Example: see airport list